Terminal Aerodrome Forecast
Issued by NWS

Home | Current Version | Previous Version | Graphics & Text | Print | Product List | Glossary On
Versions: 1 2 3 4 5 6 7 8 9 10 11 12 13 14 15 16 17 18 19 20 21 22 23 24
002
FTUS43 KBIS 151039 AAA
TAFDIK
TAF AMD
KDIK 151039Z 1511/1606 13006KT P6SM VCSH OVC015
     FM151300 12005KT P6SM VCSH OVC010
     FM151800 13005KT P6SM VCTS OVC015CB
     FM152000 10006KT P6SM BKN040
     FM160100 07006KT P6SM BKN150=

USA.gov is the U.S. government's official web portal to all federal, state and local government web resources and services.